createdAt,value
2022-10-17T00:00:11.073Z,99291.02
2022-10-17T00:01:11.114Z,99288.92
2022-10-17T00:02:11.083Z,99295.66
2022-10-17T00:03:11.073Z,99292.00
2022-10-17T00:04:11.078Z,99287.15
2022-10-17T00:05:11.083Z,99286.73
2022-10-17T00:06:12.077Z,99284.96
2022-10-17T00:07:11.082Z,99278.95
2022-10-17T00:08:11.082Z,99276.32
2022-10-17T00:09:11.077Z,99275.57
2022-10-17T00:10:11.071Z,99273.88
2022-10-17T00:11:18.082Z,99279.80
2022-10-17T00:12:11.078Z,99281.86
2022-10-17T00:13:12.073Z,99275.53
2022-10-17T00:14:11.077Z,99274.50
2022-10-17T00:15:11.083Z,99275.43
2022-10-17T00:16:11.074Z,99280.17
2022-10-17T00:17:11.074Z,99264.22
2022-10-17T00:18:11.080Z,99264.78
2022-10-17T00:19:11.078Z,99268.45
2022-10-17T00:20:11.073Z,99267.62
2022-10-17T00:21:18.066Z,99263.11
2022-10-17T00:22:11.060Z,99269.64
2022-10-17T00:23:11.057Z,99271.04
2022-10-17T00:24:11.059Z,99265.59
2022-10-17T00:25:11.067Z,99271.84
2022-10-17T00:26:11.057Z,99270.29
2022-10-17T00:27:11.059Z,99262.53
2022-10-17T00:28:13.066Z,99269.24
2022-10-17T00:29:11.108Z,99264.86
2022-10-17T00:30:14.056Z,99267.76
2022-10-17T00:31:11.060Z,99272.86
2022-10-17T00:32:11.069Z,99267.95
2022-10-17T00:33:11.059Z,99268.09
2022-10-17T00:34:11.061Z,99272.65
2022-10-17T00:35:11.069Z,99271.04
2022-10-17T00:36:17.059Z,99275.68
2022-10-17T00:37:11.062Z,99273.64
2022-10-17T00:38:11.060Z,99274.46
2022-10-17T00:39:11.060Z,99275.41
2022-10-17T00:40:11.059Z,99279.12
2022-10-17T00:41:11.066Z,99283.55
2022-10-17T00:42:14.065Z,99284.54
2022-10-17T00:43:17.058Z,99282.61
2022-10-17T00:44:19.060Z,99287.45
2022-10-17T00:45:19.078Z,99282.87
2022-10-17T00:46:11.064Z,99274.70
2022-10-17T00:47:13.061Z,99276.82
2022-10-17T00:48:11.061Z,99276.16
2022-10-17T00:49:11.064Z,99278.96
2022-10-17T00:50:11.062Z,99275.82
2022-10-17T00:51:11.061Z,99271.66
2022-10-17T00:52:15.064Z,99277.02
2022-10-17T00:53:11.064Z,99282.92
2022-10-17T00:54:11.063Z,99286.57
2022-10-17T00:55:14.066Z,99287.11
2022-10-17T00:56:11.061Z,99281.96
2022-10-17T00:57:11.065Z,99283.43
2022-10-17T00:58:11.072Z,99280.57
2022-10-17T00:59:11.063Z,99276.72
2022-10-17T01:00:11.066Z,99272.04
2022-10-17T01:01:11.118Z,99261.45
2022-10-17T01:02:14.066Z,99252.77
2022-10-17T01:03:11.063Z,99250.50
2022-10-17T01:04:11.063Z,99247.96
2022-10-17T01:05:11.065Z,99260.27
2022-10-17T01:06:11.064Z,99271.82
2022-10-17T01:07:11.064Z,99277.95
2022-10-17T01:08:11.064Z,99278.38
2022-10-17T01:09:11.066Z,99272.27
2022-10-17T01:10:11.141Z,99263.39
2022-10-17T01:11:22.067Z,99263.27
2022-10-17T01:12:19.063Z,99271.40
2022-10-17T01:13:19.063Z,99279.64
2022-10-17T01:14:19.066Z,99294.65
2022-10-17T01:15:25.074Z,99296.19
2022-10-17T01:16:19.073Z,99294.13
2022-10-17T01:17:19.067Z,99295.69
2022-10-17T01:18:19.065Z,99301.07
2022-10-17T01:19:19.114Z,99287.94
2022-10-17T01:20:19.070Z,99310.34
2022-10-17T01:21:19.069Z,99309.24
2022-10-17T01:22:19.062Z,99310.45
2022-10-17T01:23:19.060Z,99310.58
2022-10-17T01:24:19.068Z,99318.07
2022-10-17T01:25:19.060Z,99320.80
2022-10-17T01:26:19.068Z,99312.56
2022-10-17T01:27:22.063Z,99315.63
2022-10-17T01:28:19.060Z,99317.51
2022-10-17T01:29:21.063Z,99320.23
2022-10-17T01:30:19.065Z,99329.24
2022-10-17T01:31:15.070Z,99336.09
2022-10-17T01:32:22.062Z,99335.66
2022-10-17T01:33:17.063Z,99333.81
2022-10-17T01:34:20.065Z,99337.83
2022-10-17T01:35:19.067Z,99340.04
2022-10-17T01:36:22.065Z,99343.25
2022-10-17T01:37:18.065Z,99348.24
2022-10-17T01:38:18.062Z,99342.42
2022-10-17T01:39:20.063Z,99345.51
2022-10-17T01:40:19.085Z,99351.64
2022-10-17T01:41:19.064Z,99345.84
2022-10-17T01:42:22.065Z,99348.33
2022-10-17T01:43:22.063Z,99339.58
2022-10-17T01:44:17.063Z,99349.29
2022-10-17T01:45:16.063Z,99350.77
2022-10-17T01:46:19.075Z,99370.83
2022-10-17T01:47:13.067Z,99345.13
2022-10-17T01:48:17.064Z,99352.29
2022-10-17T01:49:11.067Z,99355.64
2022-10-17T01:50:18.065Z,99361.27
2022-10-17T01:51:15.062Z,99367.43
2022-10-17T01:52:17.062Z,99370.76
2022-10-17T01:53:18.064Z,99379.49
2022-10-17T01:54:17.076Z,99375.96
2022-10-17T01:55:15.069Z,99371.55
2022-10-17T01:56:12.093Z,99369.02
2022-10-17T01:57:14.073Z,99369.32
2022-10-17T01:58:20.069Z,99372.09
2022-10-17T01:59:19.069Z,99373.83
2022-10-17T02:00:13.068Z,99378.75
2022-10-17T02:01:11.130Z,99369.93
2022-10-17T02:02:11.067Z,99373.64
2022-10-17T02:03:13.078Z,99371.82
2022-10-17T02:04:11.067Z,99368.27
2022-10-17T02:05:11.069Z,99374.83
2022-10-17T02:06:11.064Z,99366.51
2022-10-17T02:07:11.068Z,99364.26
2022-10-17T02:08:11.074Z,99372.84
2022-10-17T02:09:21.065Z,99374.26
2022-10-17T02:10:19.064Z,99377.13
2022-10-17T02:11:21.067Z,99385.77
2022-10-17T02:12:19.076Z,99385.26
2022-10-17T02:13:19.069Z,99382.36
2022-10-17T02:14:19.071Z,99381.37
2022-10-17T02:15:21.066Z,99387.83
2022-10-17T02:16:19.069Z,99376.98
2022-10-17T02:17:24.072Z,99381.23
2022-10-17T02:18:19.075Z,99381.29
2022-10-17T02:19:22.068Z,99378.21
2022-10-17T02:20:22.066Z,99373.20
2022-10-17T02:21:18.059Z,99364.93
2022-10-17T02:22:21.059Z,99369.61
2022-10-17T02:24:19.059Z,99367.60
2022-10-17T02:25:20.058Z,99363.92
2022-10-17T02:26:19.056Z,99368.28
2022-10-17T02:27:19.058Z,99367.19
2022-10-17T02:28:20.067Z,99371.51
2022-10-17T02:29:19.069Z,99374.42
2022-10-17T02:30:19.058Z,99382.29
2022-10-17T02:31:19.056Z,99378.97
2022-10-17T02:32:19.078Z,99391.25
2022-10-17T02:33:19.070Z,99387.47
2022-10-17T02:34:19.062Z,99391.95
2022-10-17T02:35:12.059Z,99398.15
2022-10-17T02:36:16.061Z,99406.13
2022-10-17T02:37:11.066Z,99410.35
2022-10-17T02:38:12.061Z,99412.61
2022-10-17T02:39:11.058Z,99414.64
2022-10-17T02:40:11.062Z,99414.44
2022-10-17T02:41:14.062Z,99413.88
2022-10-17T02:42:12.061Z,99410.17
2022-10-17T02:43:11.060Z,99412.59
2022-10-17T02:44:11.062Z,99411.43
2022-10-17T02:45:11.062Z,99419.45
2022-10-17T02:46:11.063Z,99423.25
2022-10-17T02:47:19.062Z,99415.43
2022-10-17T02:48:19.063Z,99422.88
2022-10-17T02:49:18.058Z,99414.40
2022-10-17T02:50:11.064Z,99413.90
2022-10-17T02:51:19.063Z,99412.34
2022-10-17T02:52:14.062Z,99412.45
2022-10-17T02:53:15.063Z,99410.83
2022-10-17T02:54:20.065Z,99418.42
2022-10-17T02:55:18.095Z,99416.44
2022-10-17T02:56:18.066Z,99415.29
2022-10-17T02:57:18.062Z,99413.72
2022-10-17T02:58:20.070Z,99414.73
2022-10-17T02:59:12.063Z,99416.42
2022-10-17T03:00:12.065Z,99409.96
2022-10-17T03:01:11.131Z,99414.92
2022-10-17T03:02:11.062Z,99408.73
2022-10-17T03:03:19.067Z,99412.73
2022-10-17T03:04:14.062Z,99414.47
2022-10-17T03:05:11.066Z,99412.18
2022-10-17T03:06:11.067Z,99417.79
2022-10-17T03:07:11.066Z,99412.34
2022-10-17T03:08:11.062Z,99418.83
2022-10-17T03:09:11.066Z,99413.24
2022-10-17T03:10:11.065Z,99417.11
2022-10-17T03:11:11.061Z,99419.51
2022-10-17T03:12:11.068Z,99416.94
2022-10-17T03:13:11.066Z,99415.92
2022-10-17T03:14:11.065Z,99417.20
2022-10-17T03:15:11.067Z,99416.58
2022-10-17T03:16:11.066Z,99415.73
2022-10-17T03:17:11.063Z,99424.82
2022-10-17T03:18:11.069Z,99422.07
2022-10-17T03:19:11.066Z,99421.64
2022-10-17T03:20:11.066Z,99424.73
2022-10-17T03:21:11.059Z,99435.54
2022-10-17T03:22:11.060Z,99426.84
2022-10-17T03:23:11.060Z,99426.27
2022-10-17T03:24:11.059Z,99418.65
2022-10-17T03:25:11.071Z,99416.75
2022-10-17T03:26:11.066Z,99410.74
2022-10-17T03:27:11.065Z,99412.50
2022-10-17T03:28:11.070Z,99413.80
2022-10-17T03:29:11.156Z,99414.34
2022-10-17T03:30:11.055Z,99424.42
2022-10-17T03:31:11.066Z,99415.81
2022-10-17T03:32:11.061Z,99416.80
2022-10-17T03:33:11.056Z,99413.98
2022-10-17T03:34:11.064Z,99413.35
2022-10-17T03:35:14.957Z,99419.63
2022-10-17T03:36:11.059Z,99415.80
2022-10-17T03:37:11.060Z,99419.28
2022-10-17T03:38:11.061Z,99427.46
2022-10-17T03:39:11.060Z,99423.62
2022-10-17T03:40:11.061Z,99427.30
2022-10-17T03:41:11.068Z,99424.27
2022-10-17T03:42:11.061Z,99428.85
2022-10-17T03:43:11.058Z,99428.38
2022-10-17T03:44:11.063Z,99429.06
2022-10-17T03:45:11.063Z,99427.84
2022-10-17T03:46:11.112Z,99426.96
2022-10-17T03:47:13.456Z,99420.35
2022-10-17T03:48:11.070Z,99423.26
2022-10-17T03:49:11.061Z,99420.68
2022-10-17T03:50:11.062Z,99416.25
2022-10-17T03:51:11.069Z,99415.06
2022-10-17T03:52:13.061Z,99418.66
2022-10-17T03:53:11.064Z,99413.64
2022-10-17T03:54:11.071Z,99410.34
2022-10-17T03:55:11.065Z,99421.33
2022-10-17T03:56:17.064Z,99423.68
2022-10-17T03:57:11.066Z,99429.77
2022-10-17T03:58:11.064Z,99431.66
2022-10-17T03:59:13.061Z,99434.64
2022-10-17T04:00:11.063Z,99441.80
2022-10-17T04:01:11.124Z,99444.86
2022-10-17T04:02:11.064Z,99443.29
2022-10-17T04:03:16.390Z,99442.00
2022-10-17T04:04:13.117Z,99440.54
2022-10-17T04:05:11.064Z,99446.24
2022-10-17T04:06:12.059Z,99448.60
2022-10-17T04:07:11.073Z,99450.54
2022-10-17T04:08:11.065Z,99454.38
2022-10-17T04:09:11.065Z,99451.99
2022-10-17T04:10:11.071Z,99452.66
2022-10-17T04:11:13.067Z,99452.81
2022-10-17T04:12:11.068Z,99445.21
2022-10-17T04:13:11.067Z,99444.37
2022-10-17T04:14:11.065Z,99439.03
2022-10-17T04:15:11.065Z,99438.16
2022-10-17T04:16:12.082Z,99439.25
2022-10-17T04:17:11.067Z,99444.38
2022-10-17T04:18:11.068Z,99437.90
2022-10-17T04:19:13.069Z,99442.47
2022-10-17T04:20:11.073Z,99436.09
2022-10-17T04:21:11.058Z,99441.14
2022-10-17T04:22:12.058Z,99437.71
2022-10-17T04:23:11.066Z,99447.75
2022-10-17T04:24:12.056Z,99446.37
2022-10-17T04:25:11.061Z,99453.84
2022-10-17T04:26:11.067Z,99456.07
2022-10-17T04:27:11.060Z,99455.16
2022-10-17T04:28:11.056Z,99462.47
2022-10-17T04:29:11.064Z,99464.72
2022-10-17T04:30:11.060Z,99465.97
2022-10-17T04:31:12.060Z,99468.56
2022-10-17T04:32:11.060Z,99471.64
2022-10-17T04:33:11.061Z,99477.59
2022-10-17T04:34:11.059Z,99475.74
2022-10-17T04:35:11.067Z,99482.21
2022-10-17T04:36:12.068Z,99482.14
2022-10-17T04:37:11.061Z,99486.51
2022-10-17T04:38:11.060Z,99485.00
2022-10-17T04:39:11.120Z,99486.21
2022-10-17T04:40:11.062Z,99489.72
2022-10-17T04:41:12.058Z,99485.96
2022-10-17T04:42:11.060Z,99492.84
2022-10-17T04:43:11.068Z,99494.79
2022-10-17T04:44:11.060Z,99493.53
2022-10-17T04:45:11.062Z,99499.20
2022-10-17T04:46:11.069Z,99501.28
2022-10-17T04:47:11.061Z,99504.14
2022-10-17T04:48:11.065Z,99506.36
2022-10-17T04:49:11.069Z,99503.81
2022-10-17T04:50:11.064Z,99501.83
2022-10-17T04:51:12.058Z,99504.00
2022-10-17T04:52:11.064Z,99506.54
2022-10-17T04:53:11.064Z,99504.53
2022-10-17T04:54:11.065Z,99507.25
2022-10-17T04:55:11.062Z,99502.06
2022-10-17T04:56:15.064Z,99502.91
2022-10-17T04:57:11.060Z,99503.75
2022-10-17T04:58:11.064Z,99504.36
2022-10-17T04:59:11.072Z,99506.38
2022-10-17T05:00:11.068Z,99506.77
2022-10-17T05:01:11.199Z,99508.16
2022-10-17T05:02:11.070Z,99509.24
2022-10-17T05:03:11.065Z,99514.56
2022-10-17T05:04:11.060Z,99511.83
2022-10-17T05:05:11.066Z,99509.36
2022-10-17T05:06:15.071Z,99515.57
2022-10-17T05:07:11.063Z,99523.11
2022-10-17T05:08:11.064Z,99522.05
2022-10-17T05:09:11.073Z,99526.97
2022-10-17T05:10:11.066Z,99532.94
2022-10-17T05:11:21.066Z,99533.68
2022-10-17T05:12:11.071Z,99537.14
2022-10-17T05:13:11.074Z,99539.22
2022-10-17T05:14:11.062Z,99544.54
2022-10-17T05:15:11.071Z,99548.48
2022-10-17T05:16:11.073Z,99546.41
2022-10-17T05:17:11.063Z,99547.44
2022-10-17T05:18:11.066Z,99550.41
2022-10-17T05:19:11.074Z,99551.46
2022-10-17T05:20:11.066Z,99552.76
2022-10-17T05:21:11.054Z,99556.71
2022-10-17T05:22:11.065Z,99557.52
2022-10-17T05:23:11.059Z,99555.43
2022-10-17T05:24:13.060Z,99557.25
2022-10-17T05:25:11.062Z,99554.96
2022-10-17T05:26:11.060Z,99558.59
2022-10-17T05:27:11.056Z,99558.40
2022-10-17T05:28:11.061Z,99556.93
2022-10-17T05:29:11.137Z,99564.53
2022-10-17T05:30:11.058Z,99562.27
2022-10-17T05:31:11.059Z,99566.65
2022-10-17T05:32:11.061Z,99572.69
2022-10-17T05:33:11.060Z,99574.84
2022-10-17T05:34:13.186Z,99577.78
2022-10-17T05:35:11.062Z,99575.61
2022-10-17T05:36:11.058Z,99578.39
2022-10-17T05:37:11.062Z,99578.55
2022-10-17T05:38:11.067Z,99579.38
2022-10-17T05:39:11.067Z,99582.66
2022-10-17T05:40:11.061Z,99586.86
2022-10-17T05:41:11.069Z,99588.88
2022-10-17T05:42:11.058Z,99588.29
2022-10-17T05:43:11.063Z,99593.84
2022-10-17T05:44:11.068Z,99592.88
2022-10-17T05:45:11.059Z,99596.29
2022-10-17T05:46:11.061Z,99599.35
2022-10-17T05:47:11.070Z,99599.03
2022-10-17T05:48:11.061Z,99601.50
2022-10-17T05:49:19.758Z,99610.78
2022-10-17T05:50:13.145Z,99604.97
2022-10-17T05:51:11.067Z,99607.95
2022-10-17T05:52:11.060Z,99601.62
2022-10-17T05:53:11.064Z,99608.62
2022-10-17T05:54:11.070Z,99610.17
2022-10-17T05:55:11.062Z,99613.14
2022-10-17T05:56:11.063Z,99614.29
2022-10-17T05:57:11.070Z,99615.50
2022-10-17T05:58:17.722Z,99618.94
2022-10-17T05:59:13.084Z,99618.41
2022-10-17T06:00:11.062Z,99620.75
2022-10-17T06:01:12.769Z,99622.63
2022-10-17T06:02:12.149Z,99629.65
2022-10-17T06:03:13.064Z,99631.36
2022-10-17T06:04:11.065Z,99633.03
2022-10-17T06:05:11.066Z,99638.30
2022-10-17T06:06:11.085Z,99633.45
2022-10-17T06:07:11.067Z,99638.25
2022-10-17T06:08:11.065Z,99639.84
2022-10-17T06:09:11.062Z,99638.21
2022-10-17T06:10:11.068Z,99638.96
2022-10-17T06:11:11.066Z,99640.44
2022-10-17T06:12:11.064Z,99645.61
2022-10-17T06:13:11.071Z,99648.40
2022-10-17T06:14:11.066Z,99647.46
2022-10-17T06:15:11.065Z,99651.15
2022-10-17T06:16:11.066Z,99648.85
2022-10-17T06:17:15.548Z,99652.53
2022-10-17T06:18:13.071Z,99656.30
2022-10-17T06:19:11.075Z,99658.96
2022-10-17T06:20:11.073Z,99660.27
2022-10-17T06:21:11.059Z,99657.76
2022-10-17T06:22:11.059Z,99661.51
2022-10-17T06:23:11.066Z,99662.56
2022-10-17T06:24:11.059Z,99661.20
2022-10-17T06:25:11.055Z,99664.16
2022-10-17T06:26:11.064Z,99672.07
2022-10-17T06:27:12.116Z,99673.66
2022-10-17T06:28:11.056Z,99675.98
2022-10-17T06:29:11.146Z,99677.84
2022-10-17T06:30:11.066Z,99681.53
2022-10-17T06:31:13.057Z,99681.04
2022-10-17T06:32:14.112Z,99683.32
2022-10-17T06:33:11.067Z,99683.28
2022-10-17T06:34:11.059Z,99686.75
2022-10-17T06:35:11.063Z,99689.54
2022-10-17T06:36:12.068Z,99691.12
2022-10-17T06:37:11.061Z,99693.82
2022-10-17T06:38:11.060Z,99697.28
2022-10-17T06:39:11.063Z,99696.84
2022-10-17T06:40:11.062Z,99695.27
2022-10-17T06:41:14.058Z,99697.13
2022-10-17T06:42:11.063Z,99695.09
2022-10-17T06:43:11.069Z,99695.36
2022-10-17T06:44:14.060Z,99702.40
2022-10-17T06:45:11.059Z,99704.20
2022-10-17T06:46:11.063Z,99704.91
2022-10-17T06:47:11.063Z,99708.55
2022-10-17T06:48:11.062Z,99711.68
2022-10-17T06:49:11.063Z,99715.09
2022-10-17T06:50:11.062Z,99714.89
2022-10-17T06:51:11.062Z,99717.61
2022-10-17T06:52:11.070Z,99716.78
2022-10-17T06:53:11.091Z,99724.48
2022-10-17T06:54:11.073Z,99730.56
2022-10-17T06:55:11.065Z,99731.65
2022-10-17T06:56:11.065Z,99738.63
2022-10-17T06:57:11.064Z,99738.68
2022-10-17T06:58:11.063Z,99743.77
2022-10-17T06:59:11.063Z,99748.59
2022-10-17T07:00:11.065Z,99750.41
2022-10-17T07:01:13.073Z,99757.00
2022-10-17T07:02:11.065Z,99759.25
2022-10-17T07:03:11.074Z,99762.50
2022-10-17T07:04:11.065Z,99766.49
2022-10-17T07:05:11.060Z,99768.76
2022-10-17T07:06:11.067Z,99768.57
2022-10-17T07:07:11.070Z,99775.49
2022-10-17T07:08:11.065Z,99776.23
2022-10-17T07:09:11.065Z,99779.19
2022-10-17T07:10:12.066Z,99782.65
2022-10-17T07:11:11.064Z,99782.37
2022-10-17T07:12:12.064Z,99785.99
2022-10-17T07:13:11.073Z,99791.31
2022-10-17T07:14:11.066Z,99790.39
2022-10-17T07:15:11.067Z,99790.50
2022-10-17T07:16:11.073Z,99790.92
2022-10-17T07:17:11.064Z,99791.55
2022-10-17T07:18:11.065Z,99790.22
2022-10-17T07:19:11.075Z,99793.25
2022-10-17T07:20:11.067Z,99798.73
2022-10-17T07:21:11.053Z,99804.14
2022-10-17T07:22:11.060Z,99802.64
2022-10-17T07:23:11.063Z,99807.95
2022-10-17T07:24:11.057Z,99803.50
2022-10-17T07:25:11.057Z,99809.66
2022-10-17T07:26:16.058Z,99813.11
2022-10-17T07:27:11.060Z,99815.86
2022-10-17T07:28:11.058Z,99817.62
2022-10-17T07:29:11.066Z,99823.32
2022-10-17T07:30:11.057Z,99830.46
2022-10-17T07:31:11.059Z,99827.12
2022-10-17T07:32:12.063Z,99826.94
2022-10-17T07:33:11.061Z,99827.18
2022-10-17T07:34:11.063Z,99829.42
2022-10-17T07:35:11.061Z,99832.17
2022-10-17T07:36:11.060Z,99836.74
2022-10-17T07:37:11.061Z,99844.03
2022-10-17T07:38:11.062Z,99845.30
2022-10-17T07:39:11.068Z,99854.09
2022-10-17T07:40:11.061Z,99853.37
2022-10-17T07:41:11.060Z,99860.12
2022-10-17T07:42:11.068Z,99857.71
2022-10-17T07:43:11.062Z,99860.79
2022-10-17T07:44:11.057Z,99861.44
2022-10-17T07:45:11.076Z,99861.23
2022-10-17T07:46:11.061Z,99865.97
2022-10-17T07:47:11.056Z,99864.90
2022-10-17T07:48:11.064Z,99865.96
2022-10-17T07:49:11.064Z,99865.64
2022-10-17T07:50:11.062Z,99866.95
2022-10-17T07:51:11.061Z,99869.82
2022-10-17T07:52:13.063Z,99871.93
2022-10-17T07:53:11.061Z,99874.78
2022-10-17T07:54:11.060Z,99872.76
2022-10-17T07:55:11.064Z,99872.76
2022-10-17T07:56:11.064Z,99882.27
2022-10-17T07:57:11.062Z,99880.94
2022-10-17T07:58:11.064Z,99886.07
2022-10-17T07:59:11.063Z,99888.98
2022-10-17T08:00:11.064Z,99893.27
2022-10-17T08:01:14.866Z,99886.60
2022-10-17T08:02:17.062Z,99882.94
2022-10-17T08:03:11.062Z,99888.75
2022-10-17T08:04:11.068Z,99890.14
2022-10-17T08:05:11.066Z,99888.43
2022-10-17T08:06:11.059Z,99896.11
2022-10-17T08:07:18.611Z,99899.32
2022-10-17T08:08:13.137Z,99905.80
2022-10-17T08:09:11.062Z,99909.72
2022-10-17T08:10:12.066Z,99913.42
2022-10-17T08:11:11.072Z,99912.43
2022-10-17T08:12:11.063Z,99914.45
2022-10-17T08:13:11.060Z,99917.28
2022-10-17T08:14:11.066Z,99920.39
2022-10-17T08:15:11.066Z,99920.74
2022-10-17T08:16:11.068Z,99924.12
2022-10-17T08:17:11.063Z,99924.19
2022-10-17T08:18:11.066Z,99928.32
2022-10-17T08:19:11.065Z,99929.43
2022-10-17T08:20:11.066Z,99927.78
2022-10-17T08:21:11.069Z,99932.00
2022-10-17T08:22:11.056Z,99933.75
2022-10-17T08:23:11.060Z,99936.41
2022-10-17T08:24:11.066Z,99940.20
2022-10-17T08:25:11.059Z,99939.68
2022-10-17T08:26:11.070Z,99945.49
2022-10-17T08:27:15.068Z,99946.95
2022-10-17T08:28:11.061Z,99946.43
2022-10-17T08:29:14.074Z,99948.41
2022-10-17T08:30:11.060Z,99950.90
2022-10-17T08:31:13.060Z,99949.91
2022-10-17T08:32:11.062Z,99950.05
2022-10-17T08:33:11.063Z,99948.73
2022-10-17T08:34:11.062Z,99947.65
2022-10-17T08:35:11.068Z,99950.69
2022-10-17T08:36:12.057Z,99954.42
2022-10-17T08:38:13.323Z,99952.06
2022-10-17T08:39:11.071Z,99952.00
2022-10-17T08:40:19.063Z,99954.70
2022-10-17T08:41:19.070Z,99961.45
2022-10-17T08:42:19.062Z,99957.93
2022-10-17T08:43:21.079Z,99957.66
2022-10-17T08:44:19.057Z,99958.10
2022-10-17T08:45:19.060Z,99959.94
2022-10-17T08:46:11.107Z,99965.06
2022-10-17T08:47:16.063Z,99963.84
2022-10-17T08:48:18.059Z,99964.61
2022-10-17T08:49:21.062Z,99963.39
2022-10-17T08:50:21.064Z,99965.92
2022-10-17T08:51:19.070Z,99967.42
2022-10-17T08:52:20.062Z,99963.63
2022-10-17T08:53:21.061Z,99966.80
2022-10-17T08:54:19.060Z,99967.11
2022-10-17T08:55:21.072Z,99964.01
2022-10-17T08:56:19.965Z,99970.71
2022-10-17T08:57:18.095Z,99966.80
2022-10-17T08:58:15.071Z,99974.85
2022-10-17T08:59:14.064Z,99977.33
2022-10-17T09:00:18.059Z,99982.00
2022-10-17T09:01:21.062Z,99988.00
2022-10-17T09:02:19.075Z,99991.88
2022-10-17T09:03:19.136Z,99991.18
2022-10-17T09:04:19.127Z,99981.60
2022-10-17T09:05:22.527Z,99990.09
2022-10-17T09:06:20.083Z,99991.59
2022-10-17T09:07:21.065Z,99995.37
2022-10-17T09:08:21.112Z,100000.38
2022-10-17T09:09:19.074Z,99999.25
2022-10-17T09:10:19.078Z,99995.37
2022-10-17T09:11:19.066Z,100003.79
2022-10-17T09:12:23.063Z,100005.06
2022-10-17T09:13:19.067Z,100007.09
2022-10-17T09:14:19.077Z,100004.52
2022-10-17T09:15:19.065Z,100008.21
2022-10-17T09:16:19.066Z,100009.54
2022-10-17T09:17:19.068Z,100001.59
2022-10-17T09:18:23.069Z,100011.69
2022-10-17T09:19:21.090Z,100009.24
2022-10-17T09:20:19.067Z,100016.68
2022-10-17T09:21:18.073Z,100020.38
2022-10-17T09:22:20.058Z,100025.57
2022-10-17T09:23:19.060Z,100029.29
2022-10-17T09:24:19.060Z,100034.91
2022-10-17T09:25:14.067Z,100027.12
2022-10-17T09:26:12.062Z,100030.55
2022-10-17T09:27:19.054Z,100037.23
2022-10-17T09:28:19.059Z,100039.37
2022-10-17T09:29:21.071Z,100044.02
2022-10-17T09:30:40.188Z,100043.94
2022-10-17T09:31:21.848Z,100043.47
2022-10-17T09:32:17.058Z,100040.75
2022-10-17T09:33:34.489Z,100045.58
2022-10-17T09:34:13.068Z,100046.97
2022-10-17T09:35:15.071Z,100045.47
2022-10-17T09:36:16.064Z,100050.39
2022-10-17T09:37:14.063Z,100059.73
2022-10-17T09:38:19.062Z,100061.00
2022-10-17T09:39:18.069Z,100058.24
2022-10-17T09:40:17.064Z,100060.28
2022-10-17T09:41:39.669Z,100067.48
2022-10-17T09:42:17.090Z,100063.32
2022-10-17T09:43:13.072Z,100062.81
2022-10-17T09:44:17.064Z,100070.59
2022-10-17T09:45:18.059Z,100067.65
2022-10-17T09:46:19.063Z,100070.57
2022-10-17T09:47:19.068Z,100082.23
2022-10-17T09:48:21.063Z,100083.15
2022-10-17T09:49:20.059Z,100080.00
2022-10-17T09:50:21.065Z,100089.04
2022-10-17T09:51:21.810Z,100081.07
2022-10-17T09:52:18.088Z,100082.46
2022-10-17T09:53:19.064Z,100086.28
2022-10-17T09:54:19.062Z,100091.09
2022-10-17T09:55:19.065Z,100088.77
2022-10-17T09:56:14.062Z,100091.01
2022-10-17T09:57:11.063Z,100089.19
2022-10-17T09:58:11.082Z,100084.07
2022-10-17T09:59:13.872Z,100091.63
2022-10-17T10:00:19.069Z,100089.10
2022-10-17T10:01:23.961Z,100089.71
2022-10-17T10:02:17.063Z,100089.00
2022-10-17T10:03:16.072Z,100093.23
2022-10-17T10:04:14.064Z,100091.71
2022-10-17T10:05:19.078Z,100086.69
2022-10-17T10:06:17.071Z,100096.32
2022-10-17T10:07:13.063Z,100099.79
2022-10-17T10:08:15.111Z,100104.45
2022-10-17T10:10:19.066Z,100114.34
2022-10-17T10:11:13.831Z,100112.27
2022-10-17T10:12:19.066Z,100111.52
2022-10-17T10:13:17.069Z,100114.23
2022-10-17T10:14:17.067Z,100110.47
2022-10-17T10:15:19.065Z,100118.40
2022-10-17T10:16:18.121Z,100123.85
2022-10-17T10:17:19.067Z,100127.70
2022-10-17T10:18:19.140Z,100120.63
2022-10-17T10:19:19.068Z,100120.39
2022-10-17T10:20:19.069Z,100122.01
2022-10-17T10:21:20.062Z,100130.66
2022-10-17T10:22:17.072Z,100134.49
2022-10-17T10:23:14.059Z,100124.53
2022-10-17T10:24:14.059Z,100131.90
2022-10-17T10:25:17.066Z,100141.68
2022-10-17T10:26:21.279Z,100136.58
2022-10-17T10:27:14.058Z,100142.97
2022-10-17T10:28:13.065Z,100141.86
2022-10-17T10:29:21.059Z,100141.45
2022-10-17T10:30:17.059Z,100138.50
2022-10-17T10:31:11.068Z,100144.56
2022-10-17T10:32:21.066Z,100143.84
2022-10-17T10:33:13.067Z,100148.20
2022-10-17T10:34:18.060Z,100148.59
2022-10-17T10:35:19.059Z,100151.96
2022-10-17T10:36:11.060Z,100154.42
2022-10-17T10:37:19.062Z,100156.77
2022-10-17T10:38:16.062Z,100156.14
2022-10-17T10:39:19.056Z,100158.75
2022-10-17T10:40:19.061Z,100154.43
2022-10-17T10:41:11.065Z,100158.04
2022-10-17T10:42:21.064Z,100156.36
2022-10-17T10:43:19.060Z,100143.94
2022-10-17T10:44:16.058Z,100161.98
2022-10-17T10:45:43.284Z,100159.77
2022-10-17T10:46:22.374Z,100161.60
2022-10-17T10:47:15.065Z,100167.97
2022-10-17T10:48:19.060Z,100168.77
2022-10-17T10:49:19.065Z,100166.55
2022-10-17T10:50:19.065Z,100170.20
2022-10-17T10:51:16.070Z,100175.41
2022-10-17T10:52:15.063Z,100170.11
2022-10-17T10:53:19.058Z,100177.39
2022-10-17T10:54:19.062Z,100175.59
2022-10-17T10:55:19.071Z,100182.81
2022-10-17T10:56:16.064Z,100182.20
2022-10-17T10:57:17.063Z,100186.40
2022-10-17T10:58:19.064Z,100174.38
2022-10-17T10:59:19.066Z,100186.46
2022-10-17T11:00:16.065Z,100184.94
2022-10-17T11:01:18.136Z,100187.35
2022-10-17T11:02:17.060Z,100183.31
2022-10-17T11:03:21.062Z,100186.70
2022-10-17T11:04:19.072Z,100180.74
2022-10-17T11:05:20.077Z,100187.10
2022-10-17T11:06:20.071Z,100188.28
2022-10-17T11:07:20.073Z,100198.19
2022-10-17T11:08:19.063Z,100187.99
2022-10-17T11:09:19.065Z,100188.53
2022-10-17T11:10:21.069Z,100184.03
2022-10-17T11:11:19.075Z,100191.23
2022-10-17T11:12:20.078Z,100189.13
2022-10-17T11:13:19.073Z,100182.08
2022-10-17T11:14:19.063Z,100187.04
2022-10-17T11:15:19.064Z,100186.42
2022-10-17T11:16:21.075Z,100190.12
2022-10-17T11:17:19.073Z,100192.45
2022-10-17T11:18:17.064Z,100184.66
2022-10-17T11:19:19.070Z,100182.00
2022-10-17T11:20:19.069Z,100180.80
2022-10-17T11:21:20.068Z,100186.96
2022-10-17T11:22:19.057Z,100184.30
2022-10-17T11:23:16.056Z,100185.00
2022-10-17T11:24:21.057Z,100185.51
2022-10-17T11:25:19.059Z,100189.64
2022-10-17T11:26:19.062Z,100189.92
2022-10-17T11:27:11.069Z,100194.49
2022-10-17T11:28:18.056Z,100199.06
2022-10-17T11:29:12.056Z,100196.99
2022-10-17T11:30:16.061Z,100192.42
2022-10-17T11:31:15.069Z,100190.81
2022-10-17T11:32:20.080Z,100199.35
2022-10-17T11:33:12.073Z,100195.41
2022-10-17T11:34:18.063Z,100194.01
2022-10-17T11:35:20.071Z,100191.83
2022-10-17T11:36:11.061Z,100189.46
2022-10-17T11:37:19.145Z,100191.83
2022-10-17T11:38:21.108Z,100183.25
2022-10-17T11:39:17.093Z,100202.24
2022-10-17T11:40:21.916Z,100194.33
2022-10-17T11:41:15.086Z,100198.52
2022-10-17T11:42:17.069Z,100210.72